createdAt,value
2023-02-19T00:00:47.214Z,10.46
2023-02-19T00:04:12.496Z,10.41
2023-02-19T00:07:37.760Z,10.29
2023-02-19T00:11:03.036Z,10.26
2023-02-19T00:14:28.247Z,10.27
2023-02-19T00:17:53.502Z,10.19
2023-02-19T00:21:18.772Z,10.19
2023-02-19T00:24:44.005Z,10.18
2023-02-19T00:28:09.305Z,10.16
2023-02-19T00:31:34.700Z,10.17
2023-02-19T00:34:59.806Z,10.2
2023-02-19T00:38:25.055Z,10.23
2023-02-19T00:41:50.322Z,10.21
2023-02-19T00:45:15.581Z,10.17
2023-02-19T00:48:40.882Z,10.14
2023-02-19T00:52:06.164Z,10.12
2023-02-19T00:55:31.418Z,10.09
2023-02-19T00:58:56.656Z,10.05
2023-02-19T01:02:21.929Z,10.03
2023-02-19T01:05:47.153Z,10.02
2023-02-19T01:09:12.429Z,9.97
2023-02-19T01:12:37.683Z,9.93
2023-02-19T01:16:03.047Z,9.89
2023-02-19T01:19:28.219Z,9.9
2023-02-19T01:22:53.456Z,9.91
2023-02-19T01:26:18.716Z,9.94
2023-02-19T01:29:43.979Z,9.98
2023-02-19T01:33:09.212Z,10.01
2023-02-19T01:36:34.477Z,10
2023-02-19T01:39:59.745Z,10.02
2023-02-19T01:43:25.020Z,10.08
2023-02-19T01:46:50.323Z,10.1
2023-02-19T01:50:15.539Z,10.09
2023-02-19T01:53:40.801Z,10.06
2023-02-19T01:57:06.027Z,10.06
2023-02-19T02:00:31.307Z,10.05
2023-02-19T02:03:56.546Z,10.04
2023-02-19T02:07:21.811Z,10.04
2023-02-19T02:10:47.114Z,10.03
2023-02-19T02:14:12.343Z,10.03
2023-02-19T02:17:37.602Z,10.05
2023-02-19T02:21:02.875Z,10.06
2023-02-19T02:24:28.137Z,10.08
2023-02-19T02:27:53.415Z,10.04
2023-02-19T02:31:18.721Z,10.01
2023-02-19T02:34:43.900Z,9.98
2023-02-19T02:38:09.152Z,10
2023-02-19T02:41:34.416Z,10.01
2023-02-19T02:44:59.664Z,10.01
2023-02-19T02:48:24.942Z,9.98
2023-02-19T02:51:50.179Z,9.94
2023-02-19T02:55:15.447Z,9.9
2023-02-19T02:58:40.705Z,9.87
2023-02-19T03:02:06.005Z,9.86
2023-02-19T03:05:32.122Z,9.83
2023-02-19T03:08:57.368Z,9.82
2023-02-19T03:12:22.604Z,9.84
2023-02-19T03:15:47.857Z,9.86
2023-02-19T03:19:13.127Z,9.86
2023-02-19T03:22:38.390Z,9.87
2023-02-19T03:26:03.654Z,9.88
2023-02-19T03:29:28.951Z,9.88
2023-02-19T03:32:54.205Z,9.88
2023-02-19T03:36:19.440Z,9.91
2023-02-19T03:39:44.720Z,9.89
2023-02-19T03:43:09.955Z,9.87
2023-02-19T03:46:35.226Z,9.88
2023-02-19T03:50:00.512Z,9.93
2023-02-19T03:53:25.742Z,9.98
2023-02-19T03:56:50.976Z,9.96
2023-02-19T04:00:16.256Z,9.94
2023-02-19T04:03:41.507Z,9.98
2023-02-19T04:07:06.774Z,9.99
2023-02-19T04:10:32.720Z,10.02
2023-02-19T04:13:57.974Z,10.03
2023-02-19T04:17:23.250Z,10.02
2023-02-19T04:20:48.510Z,10.01
2023-02-19T04:24:13.777Z,10
2023-02-19T04:27:39.032Z,10
2023-02-19T04:31:04.307Z,10
2023-02-19T04:34:29.544Z,10
2023-02-19T04:37:54.831Z,10.02
2023-02-19T04:41:20.144Z,10.06
2023-02-19T04:44:45.433Z,10.07
2023-02-19T04:48:10.686Z,10.08
2023-02-19T04:51:35.944Z,10.09
2023-02-19T04:55:01.175Z,10.1
2023-02-19T04:58:26.405Z,10.13
2023-02-19T05:01:51.749Z,10.14
2023-02-19T05:05:16.945Z,10.15
2023-02-19T05:08:42.192Z,10.12
2023-02-19T05:12:07.453Z,10.12
2023-02-19T05:15:32.732Z,10.11
2023-02-19T05:18:57.943Z,10.11
2023-02-19T05:22:23.249Z,10.12
2023-02-19T05:25:48.551Z,10.11
2023-02-19T05:29:13.798Z,10.13
2023-02-19T05:32:39.046Z,10.17
2023-02-19T05:36:04.317Z,10.2
2023-02-19T05:39:29.556Z,10.19
2023-02-19T05:42:54.797Z,10.18
2023-02-19T05:46:20.220Z,10.14
2023-02-19T05:49:45.324Z,10.1
2023-02-19T05:53:10.588Z,10.12
2023-02-19T05:56:35.841Z,10.09
2023-02-19T06:00:01.096Z,10.06
2023-02-19T06:03:26.405Z,10.03
2023-02-19T06:06:51.627Z,10.03
2023-02-19T06:10:16.882Z,10.04
2023-02-19T06:13:42.167Z,10.01
2023-02-19T06:17:07.471Z,10.06
2023-02-19T06:20:32.706Z,10.06
2023-02-19T06:23:58.041Z,10.09
2023-02-19T06:27:23.359Z,10.12
2023-02-19T06:30:50.609Z,10.12
2023-02-19T06:34:13.990Z,10.15
2023-02-19T06:37:39.253Z,10.12
2023-02-19T06:41:04.561Z,10.09
2023-02-19T06:44:29.863Z,10.02
2023-02-19T06:47:55.189Z,9.95
2023-02-19T06:51:20.480Z,9.92
2023-02-19T06:54:45.629Z,9.89
2023-02-19T06:58:10.907Z,9.93
2023-02-19T07:01:36.160Z,9.9
2023-02-19T07:05:01.561Z,9.89
2023-02-19T07:08:29.296Z,9.89
2023-02-19T07:11:52.116Z,9.82
2023-02-19T07:15:17.586Z,9.75
2023-02-19T07:18:42.918Z,9.7
2023-02-19T07:22:08.521Z,9.68
2023-02-19T07:25:33.807Z,9.65
2023-02-19T07:28:59.263Z,9.62
2023-02-19T07:32:25.202Z,9.59
2023-02-19T07:35:50.499Z,9.56
2023-02-19T07:39:16.098Z,9.58
2023-02-19T07:42:41.669Z,9.61
2023-02-19T07:46:06.941Z,9.65
2023-02-19T07:49:32.179Z,9.7
2023-02-19T07:52:59.298Z,9.74
2023-02-19T07:56:27.934Z,9.79
2023-02-19T08:00:35.309Z,9.9
2023-02-19T08:04:21.162Z,9.99
2023-02-19T08:08:27.262Z,9.99
2023-02-19T08:11:52.555Z,9.96
2023-02-19T08:15:17.814Z,9.94
2023-02-19T08:18:51.586Z,10.01
2023-02-19T08:22:16.931Z,10.12
2023-02-19T08:25:42.214Z,10.21
2023-02-19T08:29:10.187Z,10.23
2023-02-19T08:33:47.217Z,10.29
2023-02-19T08:37:23.777Z,10.32
2023-02-19T08:40:48.424Z,10.36
2023-02-19T08:44:13.631Z,10.37
2023-02-19T08:47:38.869Z,10.35
2023-02-19T08:55:23.077Z,10.4
2023-02-19T08:58:50.052Z,10.38
2023-02-19T09:02:15.799Z,10.36
2023-02-19T09:05:41.114Z,10.36
2023-02-19T09:09:06.383Z,10.42
2023-02-19T09:12:31.593Z,10.46
2023-02-19T09:15:56.910Z,10.46
2023-02-19T09:19:22.095Z,10.44
2023-02-19T09:22:47.339Z,10.41
2023-02-19T09:26:12.591Z,10.41
2023-02-19T09:29:37.873Z,10.43
2023-02-19T09:33:03.149Z,10.49
2023-02-19T09:36:28.455Z,10.52
2023-02-19T09:39:53.704Z,10.59
2023-02-19T09:43:18.950Z,10.61
2023-02-19T09:46:44.234Z,10.65
2023-02-19T09:50:09.464Z,10.73
2023-02-19T09:53:34.787Z,10.82
2023-02-19T09:57:00.315Z,10.9
2023-02-19T10:00:25.789Z,10.97
2023-02-19T10:03:51.367Z,10.98
2023-02-19T10:07:16.712Z,10.95
2023-02-19T10:10:41.974Z,10.91
2023-02-19T10:14:07.916Z,10.86
2023-02-19T10:17:33.455Z,10.84
2023-02-19T10:20:58.709Z,10.89
2023-02-19T10:24:23.948Z,10.94
2023-02-19T10:27:49.235Z,10.94
2023-02-19T10:31:14.782Z,10.98
2023-02-19T10:34:39.864Z,10.98
2023-02-19T10:38:05.056Z,11.06
2023-02-19T10:41:30.340Z,11.22
2023-02-19T10:44:55.582Z,11.4
2023-02-19T10:48:20.828Z,11.5
2023-02-19T10:51:46.067Z,11.45
2023-02-19T10:55:11.225Z,11.46
2023-02-19T10:58:36.664Z,11.47
2023-02-19T11:02:02.007Z,11.44
2023-02-19T11:05:27.266Z,11.28
2023-02-19T11:08:52.535Z,11.06
2023-02-19T11:12:17.856Z,10.86
2023-02-19T11:15:43.105Z,10.67
2023-02-19T11:19:08.315Z,10.4
2023-02-19T11:22:33.486Z,10.13
2023-02-19T11:25:58.697Z,9.9
2023-02-19T11:29:23.875Z,9.75
2023-02-19T11:32:49.089Z,9.7
2023-02-19T11:36:14.269Z,9.66
2023-02-19T11:39:39.491Z,9.6
2023-02-19T11:43:04.703Z,9.61
2023-02-19T11:46:29.960Z,9.6
2023-02-19T11:49:55.104Z,9.49
2023-02-19T11:53:20.279Z,9.37
2023-02-19T11:56:45.432Z,9.36
2023-02-19T12:00:10.635Z,9.38
2023-02-19T12:03:35.857Z,9.42
2023-02-19T12:07:01.081Z,9.42
2023-02-19T12:10:26.254Z,9.41
2023-02-19T12:13:51.567Z,9.42
2023-02-19T12:17:16.954Z,9.45
2023-02-19T12:20:42.105Z,9.51
2023-02-19T12:24:07.300Z,9.52
2023-02-19T12:27:32.468Z,9.44
2023-02-19T12:30:57.660Z,9.33
2023-02-19T12:34:22.862Z,9.21
2023-02-19T12:37:48.039Z,9.16
2023-02-19T12:41:13.232Z,9.12
2023-02-19T12:44:38.350Z,9.13
2023-02-19T12:48:03.497Z,9.18
2023-02-19T12:51:28.680Z,9.26
2023-02-19T12:54:55.722Z,9.29
2023-02-19T12:58:19.030Z,9.25
2023-02-19T13:01:44.226Z,9.27
2023-02-19T13:05:09.408Z,9.29
2023-02-19T13:08:34.746Z,9.32
2023-02-19T13:11:59.780Z,9.26
2023-02-19T13:15:24.930Z,9.2
2023-02-19T13:18:50.131Z,9.17
2023-02-19T13:22:15.375Z,9.19
2023-02-19T13:25:40.529Z,9.19
2023-02-19T13:29:05.701Z,9.22
2023-02-19T13:32:30.838Z,9.29
2023-02-19T13:35:56.004Z,9.33
2023-02-19T13:39:21.243Z,9.38
2023-02-19T13:42:46.424Z,9.39
2023-02-19T13:46:11.688Z,9.41
2023-02-19T13:49:36.812Z,9.42
2023-02-19T13:53:01.989Z,9.44
2023-02-19T13:56:27.161Z,9.47
2023-02-19T13:59:52.458Z,9.47
2023-02-19T14:03:17.704Z,9.46
2023-02-19T14:06:42.922Z,9.46
2023-02-19T14:10:08.084Z,9.48
2023-02-19T14:13:33.297Z,9.45
2023-02-19T14:16:58.578Z,9.4
2023-02-19T14:20:23.908Z,9.43
2023-02-19T14:23:49.352Z,9.51
2023-02-19T14:27:14.577Z,9.54
2023-02-19T14:30:39.916Z,9.55
2023-02-19T15:04:27.945Z,7.21
2023-02-19T15:07:53.102Z,8.14
2023-02-19T15:11:18.321Z,8.29
2023-02-19T15:14:43.494Z,8.44
2023-02-19T15:18:08.710Z,8.58
2023-02-19T15:21:33.901Z,8.68
2023-02-19T15:24:59.086Z,8.8
2023-02-19T15:28:24.290Z,8.89
2023-02-19T15:31:49.605Z,9.02
2023-02-19T15:35:14.689Z,9.12
2023-02-19T15:38:39.885Z,9.23
2023-02-19T15:42:05.089Z,9.27
2023-02-19T15:45:30.501Z,9.26
2023-02-19T15:48:55.563Z,9.29
2023-02-19T15:52:20.752Z,9.27
2023-02-19T15:55:45.931Z,9.27
2023-02-19T15:59:11.120Z,9.27
2023-02-19T16:02:36.423Z,9.2
2023-02-19T16:06:01.741Z,9.17
2023-02-19T16:09:26.898Z,9.17
2023-02-19T16:12:52.112Z,9.17
2023-02-19T16:16:17.296Z,9.2
2023-02-19T16:19:42.433Z,9.19
2023-02-19T16:23:07.600Z,9.2
2023-02-19T16:26:32.779Z,9.2
2023-02-19T16:29:57.917Z,9.17
2023-02-19T16:33:23.084Z,9.15
2023-02-19T16:36:48.237Z,9.18
2023-02-19T16:40:15.749Z,9.22
2023-02-19T16:43:38.543Z,9.24
2023-02-19T16:47:03.698Z,9.23
2023-02-19T16:50:28.849Z,9.22
2023-02-19T16:53:54.025Z,9.26
2023-02-19T16:57:19.253Z,9.26
2023-02-19T17:00:44.473Z,9.26
2023-02-19T17:04:09.783Z,9.24
2023-02-19T17:07:34.907Z,9.23
2023-02-19T17:11:00.083Z,9.23
2023-02-19T17:14:25.197Z,9.26
2023-02-19T17:17:50.379Z,9.21
2023-02-19T17:21:15.546Z,9.2
2023-02-19T17:24:40.705Z,9.21
2023-02-19T17:28:05.863Z,9.2
2023-02-19T17:31:31.139Z,9.13
2023-02-19T17:34:56.284Z,9.08
2023-02-19T17:38:21.502Z,9.02
2023-02-19T17:41:46.671Z,8.96
2023-02-19T17:45:11.808Z,8.97
2023-02-19T17:48:36.971Z,9.02
2023-02-19T17:52:02.208Z,9.1
2023-02-19T17:55:27.385Z,9.15
2023-02-19T17:58:52.604Z,9.16
2023-02-19T18:02:17.825Z,9.22
2023-02-19T18:05:43.066Z,9.25
2023-02-19T18:09:08.279Z,9.2
2023-02-19T18:12:33.543Z,9.15
2023-02-19T18:15:58.726Z,9.11
2023-02-19T18:19:23.969Z,9.07
2023-02-19T18:22:49.285Z,9.03
2023-02-19T18:26:14.539Z,9.02
2023-02-19T18:29:39.825Z,9.05
2023-02-19T18:33:05.079Z,9.13
2023-02-19T18:36:30.370Z,9.18
2023-02-19T18:39:55.673Z,9.22
2023-02-19T18:43:20.997Z,9.27
2023-02-19T18:46:46.257Z,9.31
2023-02-19T18:50:11.570Z,9.32
2023-02-19T18:53:37.284Z,9.34
2023-02-19T18:57:02.576Z,9.37
2023-02-19T19:00:27.941Z,9.38
2023-02-19T19:03:53.201Z,9.4
2023-02-19T19:07:18.486Z,9.4
2023-02-19T19:10:43.779Z,9.41
2023-02-19T19:14:09.108Z,9.43
2023-02-19T19:17:34.399Z,9.45
2023-02-19T19:20:59.708Z,9.47
2023-02-19T19:24:25.034Z,9.49
2023-02-19T19:27:50.372Z,9.52
2023-02-19T19:31:16.018Z,9.55
2023-02-19T19:34:40.926Z,9.58
2023-02-19T19:38:06.191Z,9.62
2023-02-19T19:41:31.435Z,9.68
2023-02-19T19:44:56.699Z,9.73
2023-02-19T19:48:21.965Z,9.74
2023-02-19T19:51:47.229Z,9.74
2023-02-19T19:55:12.506Z,9.74
2023-02-19T19:58:37.752Z,9.76
2023-02-19T20:02:03.003Z,9.79
2023-02-19T20:05:28.252Z,9.81
2023-02-19T20:08:53.489Z,9.85
2023-02-19T20:12:18.775Z,9.86
2023-02-19T20:15:44.112Z,9.87
2023-02-19T20:19:09.459Z,9.86
2023-02-19T20:22:34.719Z,9.85
2023-02-19T20:25:59.974Z,9.85
2023-02-19T20:29:25.271Z,9.86
2023-02-19T20:32:50.559Z,9.86
2023-02-19T20:36:15.868Z,9.84
2023-02-19T20:39:41.115Z,9.87
2023-02-19T20:43:06.404Z,9.86
2023-02-19T20:46:31.674Z,9.82
2023-02-19T20:49:56.800Z,9.8
2023-02-19T20:53:22.005Z,9.76
2023-02-19T20:56:47.223Z,9.71
2023-02-19T21:00:12.474Z,9.68
2023-02-19T21:03:37.677Z,9.66
2023-02-19T21:07:02.864Z,9.67
2023-02-19T21:10:28.015Z,9.69
2023-02-19T21:13:53.175Z,9.7
2023-02-19T21:17:18.414Z,9.67
2023-02-19T21:20:43.624Z,9.69
2023-02-19T21:24:08.823Z,9.65
2023-02-19T21:27:34.020Z,9.64
2023-02-19T21:30:59.174Z,9.64
2023-02-19T21:34:24.326Z,9.61
2023-02-19T21:37:49.512Z,9.59
2023-02-19T21:41:14.700Z,9.55
2023-02-19T21:44:41.282Z,9.49
2023-02-19T21:48:05.071Z,9.44
2023-02-19T21:51:30.255Z,9.4
2023-02-19T21:54:55.515Z,9.4
2023-02-19T21:58:20.685Z,9.45
2023-02-19T22:01:45.932Z,9.49
2023-02-19T22:05:11.113Z,9.52
2023-02-19T22:08:36.300Z,9.53
2023-02-19T22:12:01.585Z,9.53
2023-02-19T22:15:26.776Z,9.51
2023-02-19T22:18:51.998Z,9.47
2023-02-19T22:22:17.196Z,9.48
2023-02-19T22:25:42.413Z,9.47
2023-02-19T22:29:07.585Z,9.48
2023-02-19T22:32:32.898Z,9.49
2023-02-19T22:35:57.934Z,9.49
2023-02-19T22:39:23.195Z,9.52
2023-02-19T22:42:48.340Z,9.48
2023-02-19T22:46:14.111Z,9.42
2023-02-19T22:49:38.987Z,9.37
2023-02-19T22:53:04.209Z,9.38
2023-02-19T22:56:29.487Z,9.38
2023-02-19T22:59:54.661Z,9.35
2023-02-19T23:03:19.785Z,9.28
2023-02-19T23:06:44.963Z,9.25
2023-02-19T23:10:10.222Z,9.23
2023-02-19T23:13:35.426Z,9.25
2023-02-19T23:17:00.680Z,9.27
2023-02-19T23:20:25.837Z,9.24
2023-02-19T23:23:51.029Z,9.2
2023-02-19T23:27:16.178Z,9.23
2023-02-19T23:30:41.499Z,9.24
2023-02-19T23:34:06.538Z,9.24
2023-02-19T23:37:31.740Z,9.27
2023-02-19T23:40:56.945Z,9.27
2023-02-19T23:44:22.131Z,9.3
2023-02-19T23:47:47.331Z,9.31
2023-02-19T23:51:12.496Z,9.31
2023-02-19T23:54:37.695Z,9.28
2023-02-19T23:58:02.883Z,9.26
